Time;durP1;ratioP1;P1;durP2;ratioP2;P2;SDS_P1;SDS_P2;PMS_P1;PMS_P2;Temp;Humidity;BMP_temperature;BMP_pressure;BME280_temperature;BME280_humidity;BME280_pressure;Samples;Min_cycle;Max_cycle;Signal;HPM_P1;HPM_P2
2022/01/25 00:15:05;;;;;;;71.72;24.77;;;2.40;99.90;;;;;;5023990;28;20447;-74
2022/01/25 00:27:48;;;;;;;77.82;26.30;;;2.50;99.90;;;;;;4962721;28;20114;-74
2022/01/25 00:32:48;;;;;;;84.35;27.30;;;2.50;99.90;;;;;;5028243;28;20118;-75
2022/01/25 00:35:15;;;;;;;93.13;29.38;;;2.40;99.90;;;;;;5047927;28;20113;-75
2022/01/25 00:37:42;;;;;;;71.10;26.45;;;2.60;99.90;;;;;;5061112;28;20049;-74
2022/01/25 00:40:09;;;;;;;75.65;24.65;;;2.50;99.90;;;;;;5056502;28;20133;-74
2022/01/25 00:42:36;;;;;;;78.50;25.15;;;2.20;99.90;;;;;;5063191;28;20129;-75
2022/01/25 00:45:03;;;;;;;90.00;25.88;;;2.40;99.90;;;;;;5071442;28;20083;-74
2022/01/25 00:47:29;;;;;;;79.47;27.42;;;2.40;99.90;;;;;;5029732;28;20083;-75
2022/01/25 00:49:56;;;;;;;66.50;24.38;;;2.40;99.90;;;;;;5042594;28;20452;-75
2022/01/25 00:55:05;;;;;;;65.63;24.05;;;2.30;99.90;;;;;;5055248;22;20490;-72
2022/01/25 00:57:32;;;;;;;72.10;24.15;;;2.20;99.90;;;;;;5039190;28;20849;-73
2022/01/25 00:59:59;;;;;;;62.45;21.75;;;2.40;99.90;;;;;;5062866;28;20114;-72
2022/01/25 01:02:26;;;;;;;71.35;24.98;;;2.40;99.90;;;;;;5043659;28;20135;-73
2022/01/25 01:04:53;;;;;;;69.63;23.42;;;2.40;99.90;;;;;;5060090;28;20376;-72
2022/01/25 01:07:20;;;;;;;55.25;22.40;;;2.30;99.90;;;;;;5028225;28;20065;-72
2022/01/25 01:09:50;;;;;;;58.30;22.40;;;2.30;99.90;;;;;;5049947;28;20047;-73
2022/01/25 01:12:50;;;;;;;56.40;22.15;;;2.20;99.90;;;;;;5054256;28;20324;-73
2022/01/25 01:15:32;;;;;;;72.32;25.60;;;2.20;99.90;;;;;;5041102;28;20110;-73
2022/01/25 01:29:19;;;;;;;66.22;23.83;;;2.50;99.90;;;;;;5044051;28;20444;-72
2022/01/25 01:32:01;;;;;;;70.25;24.10;;;2.50;99.90;;;;;;5043707;28;20106;-73
2022/01/25 01:35:08;;;;;;;71.60;23.23;;;2.40;99.90;;;;;;5061449;28;20278;-73
2022/01/25 01:48:04;;;;;;;;;;;2.40;99.90;;;;;;5026520;28;20131;-72
2022/01/25 01:50:34;;;;;;;71.55;23.65;;;2.40;99.90;;;;;;5023978;28;20283;-72
2022/01/25 01:53:03;;;;;;;77.10;24.95;;;2.40;99.90;;;;;;5040228;28;20056;-73
2022/01/25 01:55:31;;;;;;;81.30;25.58;;;2.40;99.90;;;;;;5039568;28;20915;-72
2022/01/25 01:57:59;;;;;;;73.20;23.83;;;2.40;99.90;;;;;;5039597;28;20178;-73
2022/01/25 02:00:36;;;;;;;67.30;22.60;;;2.30;99.90;;;;;;5041519;28;20039;-72
2022/01/25 02:03:04;;;;;;;74.28;25.20;;;2.30;99.90;;;;;;5041845;28;20707;-73
2022/01/25 02:05:31;;;;;;;68.47;23.75;;;2.30;99.90;;;;;;5023443;28;20048;-72
2022/01/25 02:08:00;;;;;;;79.00;25.60;;;2.20;99.90;;;;;;5049541;28;20533;-72
2022/01/25 02:10:27;;;;;;;68.20;23.65;;;2.30;99.90;;;;;;5050935;28;20458;-73
2022/01/25 02:12:55;;;;;;;72.00;23.50;;;2.20;99.90;;;;;;5060092;28;20056;-73
2022/01/25 02:15:25;;;;;;;73.90;24.42;;;2.30;99.90;;;;;;5042423;28;20312;-72
2022/01/25 02:23:21;;;;;;;74.75;24.48;;;2.30;99.90;;;;;;5041664;28;20175;-72
2022/01/25 02:25:50;;;;;;;70.30;23.42;;;2.40;99.90;;;;;;5040231;28;20098;-73
2022/01/25 02:28:18;;;;;;;69.70;22.73;;;2.40;99.90;;;;;;5025705;28;20091;-73
2022/01/25 02:30:46;;;;;;;79.40;25.17;;;2.30;99.90;;;;;;5025400;28;20519;-73
2022/01/25 02:33:13;;;;;;;68.70;21.80;;;2.40;99.90;;;;;;5050228;28;20041;-73
2022/01/25 02:35:40;;;;;;;67.15;22.98;;;2.40;99.90;;;;;;5005980;28;20040;-72
2022/01/25 02:38:07;;;;;;;74.18;23.15;;;2.40;99.90;;;;;;5020914;28;20123;-72
2022/01/25 02:40:35;;;;;;;72.28;23.33;;;2.30;99.90;;;;;;5053491;28;20080;-72
2022/01/25 02:43:02;;;;;;;69.03;22.70;;;2.30;99.90;;;;;;5036642;28;20581;-73
2022/01/25 02:45:34;;;;;;;71.40;24.52;;;2.20;99.90;;;;;;5022781;28;20051;-73
2022/01/25 02:50:49;;;;;;;68.03;22.98;;;2.30;99.90;;;;;;5052954;28;20083;-73
2022/01/25 02:53:17;;;;;;;65.13;22.90;;;2.30;99.90;;;;;;5042310;28;20390;-72
2022/01/25 02:55:43;;;;;;;68.78;21.98;;;2.30;99.90;;;;;;5025845;28;20461;-73
2022/01/25 02:58:11;;;;;;;61.63;22.05;;;2.40;99.90;;;;;;5060458;28;20507;-72
2022/01/25 03:00:37;;;;;;;64.40;21.67;;;2.40;99.90;;;;;;5024685;28;20072;-73
2022/01/25 03:03:04;;;;;;;60.67;20.58;;;2.50;99.90;;;;;;5060751;28;20040;-73
2022/01/25 03:05:32;;;;;;;66.35;22.00;;;2.50;99.90;;;;;;5041899;28;20050;-73
2022/01/25 03:07:59;;;;;;;62.05;21.38;;;2.60;99.90;;;;;;5021686;28;20099;-73
2022/01/25 03:10:38;;;;;;;62.42;20.05;;;2.60;99.90;;;;;;5047872;28;20247;-73
2022/01/25 03:13:08;;;;;;;69.05;21.80;;;2.60;99.90;;;;;;5006458;28;20135;-72
2022/01/25 03:16:18;;;;;;;70.60;22.08;;;2.60;99.90;;;;;;5021414;28;20072;-73
2022/01/25 03:21:05;;;;;;;75.38;23.17;;;2.60;99.90;;;;;;5041307;28;20048;-73
2022/01/25 03:23:33;;;;;;;69.72;22.30;;;2.70;99.90;;;;;;5058960;28;20052;-73
2022/01/25 03:25:59;;;;;;;81.75;22.77;;;2.50;99.90;;;;;;5060149;28;20048;-74
2022/01/25 03:28:26;;;;;;;63.15;21.23;;;2.50;99.90;;;;;;5060551;28;20578;-73
2022/01/25 03:30:53;;;;;;;69.13;22.70;;;2.50;99.90;;;;;;5029846;28;20045;-73
2022/01/25 03:33:21;;;;;;;65.70;21.52;;;2.50;99.90;;;;;;5022948;28;20045;-72
2022/01/25 03:35:48;;;;;;;65.13;19.80;;;2.40;99.90;;;;;;5023058;28;20147;-73
2022/01/25 03:38:15;;;;;;;66.57;21.40;;;2.40;99.90;;;;;;5027485;28;20102;-73
2022/01/25 03:40:42;;;;;;;68.43;22.17;;;2.40;99.90;;;;;;5050428;28;20098;-73
2022/01/25 03:43:09;;;;;;;72.82;21.08;;;2.30;99.90;;;;;;5043943;28;20110;-73
2022/01/25 03:45:39;;;;;;;59.90;19.88;;;2.30;99.90;;;;;;5024458;28;20098;-73
2022/01/25 03:50:43;;;;;;;77.15;22.52;;;2.20;99.90;;;;;;5043056;28;20071;-72
2022/01/25 03:53:13;;;;;;;73.95;21.70;;;2.20;99.90;;;;;;5044498;28;20048;-72
2022/01/25 03:55:40;;;;;;;77.10;22.35;;;2.30;99.90;;;;;;5045605;28;20204;-73
2022/01/25 03:58:07;;;;;;;85.18;25.48;;;2.30;99.90;;;;;;5063164;28;20102;-73
2022/01/25 04:00:36;;;;;;;73.50;23.48;;;2.20;99.90;;;;;;5044418;28;20723;-73
2022/01/25 04:03:08;;;;;;;69.63;23.25;;;2.20;99.90;;;;;;5026319;28;20139;-72
2022/01/25 04:05:47;;;;;;;75.07;21.83;;;2.30;99.90;;;;;;5041527;28;20049;-73
2022/01/25 04:08:16;;;;;;;73.20;23.40;;;2.30;99.90;;;;;;5035436;28;20073;-73
2022/01/25 04:10:43;;;;;;;79.55;22.83;;;2.30;99.90;;;;;;5032835;28;20110;-73
2022/01/25 04:13:10;;;;;;;77.85;23.60;;;2.30;99.90;;;;;;5043035;28;20073;-73
2022/01/25 04:15:41;;;;;;;68.65;21.20;;;2.30;99.90;;;;;;5046711;28;20049;-72
2022/01/25 04:20:43;;;;;;;87.18;23.27;;;2.30;99.90;;;;;;5063135;28;20135;-72
2022/01/25 04:25:56;;;;;;;73.63;22.52;;;2.30;99.90;;;;;;5022728;28;20103;-72
2022/01/25 04:28:23;;;;;;;76.50;21.85;;;2.30;99.90;;;;;;5022721;28;20144;-73
2022/01/25 04:30:49;;;;;;;87.32;22.60;;;2.30;99.90;;;;;;5027483;28;20598;-72
2022/01/25 04:33:20;;;;;;;83.65;23.17;;;2.40;99.90;;;;;;5043206;28;20584;-73
2022/01/25 04:49:42;;;;;;;76.60;23.20;;;2.30;99.90;;;;;;5062249;28;20073;-73
2022/01/25 04:52:14;;;;;;;73.03;22.73;;;2.30;99.90;;;;;;5044723;28;20131;-72
2022/01/25 04:55:11;;;;;;;67.53;22.20;;;2.20;99.90;;;;;;5042410;28;20100;-72
2022/01/25 04:57:47;;;;;;;67.30;22.45;;;2.20;99.90;;;;;;5061023;28;20041;-73
2022/01/25 05:00:21;;;;;;;68.55;21.10;;;2.30;99.90;;;;;;5044704;28;20052;-73
2022/01/25 05:02:53;;;;;;;72.05;21.52;;;2.30;99.90;;;;;;5060633;28;20056;-72
2022/01/25 05:08:07;;;;;;;83.03;26.05;;;2.50;99.90;;;;;;5024538;28;20049;-72
2022/01/25 05:10:46;;;;;;;85.18;26.70;;;2.40;99.90;;;;;;5049970;28;20138;-73
2022/01/25 05:13:36;;;;;;;82.13;26.25;;;2.40;99.90;;;;;;5025893;28;20057;-72
2022/01/25 05:16:14;;;;;;;79.38;25.45;;;2.50;99.90;;;;;;5032937;28;20539;-73
2022/01/25 05:18:48;;;;;;;79.20;28.80;;;2.50;99.90;;;;;;5057369;28;20558;-73
2022/01/25 05:24:00;;;;;;;83.35;28.88;;;2.60;99.90;;;;;;5054267;28;20083;-73
2022/01/25 05:26:27;;;;;;;77.60;29.02;;;2.60;99.90;;;;;;5042004;28;20045;-73
2022/01/25 05:28:58;;;;;;;83.80;28.25;;;2.50;99.90;;;;;;5043549;28;20090;-73
2022/01/25 05:31:25;;;;;;;87.28;26.60;;;2.50;99.90;;;;;;5061906;28;20072;-73
2022/01/25 05:33:51;;;;;;;82.03;25.48;;;2.60;99.90;;;;;;5041706;28;20090;-73
2022/01/25 05:36:23;;;;;;;84.20;30.30;;;2.60;99.90;;;;;;5046181;28;20102;-73
2022/01/25 05:38:50;;;;;;;80.18;28.38;;;2.60;99.90;;;;;;5044200;28;20045;-73
2022/01/25 05:41:17;;;;;;;78.10;25.77;;;2.60;99.90;;;;;;5050011;28;20068;-73
2022/01/25 05:46:42;;;;;;;77.97;28.00;;;2.60;99.90;;;;;;5043834;28;20126;-73
2022/01/25 05:49:09;;;;;;;78.93;28.05;;;2.60;99.90;;;;;;5043866;28;20060;-71
2022/01/25 05:51:35;;;;;;;79.35;27.80;;;2.70;99.90;;;;;;5041026;28;20131;-72
2022/01/25 05:54:02;;;;;;;77.35;28.23;;;2.70;99.90;;;;;;5041176;28;20061;-74
2022/01/25 05:56:29;;;;;;;69.80;29.25;;;2.70;99.90;;;;;;5036073;28;20053;-73
2022/01/25 05:58:55;;;;;;;74.22;27.33;;;2.70;99.90;;;;;;5038771;28;20642;-74
2022/01/25 06:01:22;;;;;;;71.68;27.20;;;2.80;99.90;;;;;;5038555;28;20163;-74
2022/01/25 06:03:49;;;;;;;69.63;28.00;;;2.70;99.90;;;;;;5039519;28;20067;-73
2022/01/25 06:06:16;;;;;;;79.40;27.85;;;2.70;99.90;;;;;;5046924;28;20370;-74
2022/01/25 06:08:42;;;;;;;63.35;26.77;;;2.60;99.90;;;;;;5024895;28;20467;-74
2022/01/25 06:11:09;;;;;;;70.07;25.80;;;2.60;99.90;;;;;;5032876;28;20139;-74
2022/01/25 06:13:36;;;;;;;81.28;27.90;;;2.60;99.90;;;;;;5031876;28;20075;-74
2022/01/25 06:16:04;;;;;;;71.07;27.08;;;2.60;99.90;;;;;;5014634;28;20044;-74
2022/01/25 06:18:31;;;;;;;69.95;27.55;;;2.50;99.90;;;;;;5043759;28;20056;-74
2022/01/25 06:20:57;;;;;;;61.70;25.42;;;2.50;99.90;;;;;;5038419;28;20072;-74
2022/01/25 06:23:24;;;;;;;70.55;27.00;;;2.60;99.90;;;;;;5021421;28;20215;-74
2022/01/25 06:25:51;;;;;;;75.28;27.05;;;2.60;99.90;;;;;;5039810;28;20071;-74
2022/01/25 06:28:18;;;;;;;72.40;26.23;;;2.70;99.90;;;;;;5039152;28;20094;-73
2022/01/25 06:30:45;;;;;;;74.10;25.10;;;2.70;99.90;;;;;;5022435;28;20071;-74
2022/01/25 06:33:12;;;;;;;70.13;26.33;;;2.70;99.90;;;;;;5037602;28;20058;-74
2022/01/25 06:35:39;;;;;;;79.03;27.00;;;2.80;99.90;;;;;;5045457;28;20603;-74
2022/01/25 06:38:06;;;;;;;78.32;29.38;;;2.70;99.90;;;;;;5021940;28;20037;-73
2022/01/25 06:40:33;;;;;;;74.78;29.10;;;2.70;99.90;;;;;;5026864;28;20044;-74
2022/01/25 06:43:00;;;;;;;84.85;30.45;;;2.70;99.90;;;;;;5026938;28;20061;-74
2022/01/25 06:45:27;;;;;;;75.75;28.88;;;2.60;99.90;;;;;;5040938;28;20056;-74
2022/01/25 06:47:54;;;;;;;79.85;29.30;;;2.40;99.90;;;;;;5037739;28;20049;-74
2022/01/25 06:50:25;;;;;;;82.68;30.30;;;2.40;99.90;;;;;;5039907;28;20132;-75
2022/01/25 06:52:52;;;;;;;74.97;28.42;;;2.40;99.90;;;;;;5040325;28;20148;-74
2022/01/25 06:55:37;;;;;;;82.68;30.75;;;2.40;99.90;;;;;;5035007;22;20115;-75
2022/01/25 06:58:04;;;;;;;84.40;30.70;;;2.40;99.90;;;;;;5028285;28;20056;-75
2022/01/25 07:00:31;;;;;;;83.53;28.83;;;2.50;99.90;;;;;;5037708;28;20060;-75
2022/01/25 07:02:58;;;;;;;84.18;29.20;;;2.50;99.90;;;;;;5039689;28;20337;-75
2022/01/25 07:05:26;;;;;;;74.82;28.75;;;2.40;99.90;;;;;;5021542;28;20079;-74
2022/01/25 07:07:53;;;;;;;83.57;28.67;;;2.40;99.90;;;;;;5024472;28;20045;-75
2022/01/25 07:10:20;;;;;;;90.13;31.70;;;2.40;99.90;;;;;;5016766;28;20566;-74
2022/01/25 07:12:48;;;;;;;80.85;30.08;;;2.40;99.90;;;;;;5002490;28;20061;-75
2022/01/25 07:15:16;;;;;;;77.15;27.27;;;2.30;99.90;;;;;;5003528;28;20052;-75
2022/01/25 07:17:43;;;;;;;82.00;30.80;;;2.40;99.90;;;;;;5020486;28;20100;-76
2022/01/25 07:20:11;;;;;;;85.07;29.60;;;2.40;99.90;;;;;;5023562;28;20079;-75
2022/01/25 07:22:40;;;;;;;86.90;31.13;;;2.50;99.90;;;;;;5006053;28;20061;-75
2022/01/25 07:25:09;;;;;;;89.82;31.08;;;2.60;99.90;;;;;;5005372;28;20115;-74
2022/01/25 07:27:36;;;;;;;85.55;29.85;;;2.60;99.90;;;;;;5004685;28;20049;-74
2022/01/25 07:30:04;;;;;;;86.15;31.77;;;2.70;99.90;;;;;;5005383;28;20045;-75
2022/01/25 07:32:32;;;;;;;87.43;33.88;;;2.70;99.90;;;;;;5018887;28;20389;-75
2022/01/25 07:35:03;;;;;;;86.25;30.33;;;2.80;99.90;;;;;;5005629;28;20056;-75
2022/01/25 07:37:31;;;;;;;78.35;31.50;;;2.80;99.90;;;;;;4995439;28;20543;-74
2022/01/25 07:40:01;;;;;;;83.15;31.40;;;2.70;99.90;;;;;;5009980;28;20057;-74
2022/01/25 07:42:36;;;;;;;88.90;29.92;;;2.50;99.90;;;;;;4983056;28;20492;-74
2022/01/25 07:45:13;;;;;;;85.28;31.55;;;2.50;99.90;;;;;;5004161;28;20060;-75
2022/01/25 07:47:45;;;;;;;84.03;30.05;;;2.30;99.90;;;;;;4989183;28;20620;-74
2022/01/25 07:50:14;;;;;;;80.15;30.45;;;2.30;99.90;;;;;;5007023;28;20107;-75
2022/01/25 07:52:41;;;;;;;88.88;31.48;;;2.20;99.90;;;;;;5019987;28;20494;-75
2022/01/25 07:55:08;;;;;;;82.00;29.23;;;2.40;99.90;;;;;;5004942;28;20057;-74
2022/01/25 07:57:36;;;;;;;87.55;32.17;;;2.50;99.90;;;;;;5005606;28;20107;-75
2022/01/25 08:00:04;;;;;;;83.90;30.20;;;2.60;99.90;;;;;;5004607;28;20057;-75
2022/01/25 08:02:41;;;;;;;87.78;31.63;;;2.60;99.90;;;;;;5006533;28;20136;-75
2022/01/25 08:05:15;;;;;;;86.55;31.88;;;2.60;99.90;;;;;;4989591;28;20174;-75
2022/01/25 08:07:44;;;;;;;88.80;31.55;;;2.60;99.90;;;;;;5016656;28;20076;-75
2022/01/25 08:10:20;;;;;;;;;;;2.50;99.90;;;;;;5022483;28;20045;-74
2022/01/25 08:12:47;;;;;;;86.35;29.25;;;2.40;99.90;;;;;;5030606;28;19944;-74
2022/01/25 08:15:18;;;;;;;84.30;29.02;;;2.20;99.90;;;;;;5025615;28;20057;-73
2022/01/25 08:17:49;;;;;;;83.05;29.20;;;2.30;99.90;;;;;;5025008;28;20056;-74
2022/01/25 08:20:19;;;;;;;88.70;31.73;;;2.30;99.90;;;;;;5025784;28;20052;-74
2022/01/25 08:22:47;;;;;;;87.13;28.77;;;2.30;99.90;;;;;;5014834;28;20074;-74
2022/01/25 08:25:19;;;;;;;94.90;32.42;;;2.30;99.90;;;;;;5008490;28;20196;-74
2022/01/25 08:27:48;;;;;;;93.88;31.85;;;2.20;99.90;;;;;;5015131;28;20457;-74
2022/01/25 08:30:15;;;;;;;87.38;31.75;;;2.20;99.90;;;;;;5045381;28;20249;-74
2022/01/25 08:32:43;;;;;;;90.78;31.75;;;2.20;99.90;;;;;;5021593;28;20430;-75
2022/01/25 08:35:15;;;;;;;86.70;30.75;;;2.30;99.90;;;;;;5025037;28;20183;-74
2022/01/25 08:37:49;;;;;;;82.07;32.33;;;2.40;99.90;;;;;;5012248;28;20539;-75
2022/01/25 08:40:19;;;;;;;82.07;29.75;;;2.50;99.90;;;;;;4999562;28;20299;-74
2022/01/25 08:42:46;;;;;;;89.55;33.00;;;2.50;99.90;;;;;;5020823;28;20049;-74
2022/01/25 08:45:15;;;;;;;83.38;31.23;;;2.50;99.90;;;;;;5024792;28;20125;-74
2022/01/25 08:47:50;;;;;;;90.47;32.28;;;2.50;99.90;;;;;;5027699;28;20074;-74
2022/01/25 08:50:19;;;;;;;89.32;33.72;;;2.50;99.90;;;;;;5040015;28;20049;-74
2022/01/25 08:52:59;;;;;;;84.88;31.70;;;2.50;99.90;;;;;;5024620;28;20047;-73
2022/01/25 08:55:35;;;;;;;80.70;31.92;;;2.50;99.90;;;;;;5042192;28;20095;-74
2022/01/25 08:58:10;;;;;;;89.47;33.70;;;2.60;99.90;;;;;;5041721;28;20045;-75
2022/01/25 09:00:37;;;;;;;85.47;31.85;;;2.60;99.90;;;;;;5042479;28;20170;-74
2022/01/25 09:03:04;;;;;;;93.57;36.40;;;2.80;99.90;;;;;;5042533;28;20049;-75
2022/01/25 09:05:32;;;;;;;93.70;35.53;;;2.90;99.90;;;;;;5028745;28;20521;-75
2022/01/25 09:08:01;;;;;;;92.55;35.28;;;2.80;99.90;;;;;;5044740;28;20053;-75
2022/01/25 09:10:28;;;;;;;96.80;35.60;;;2.90;99.90;;;;;;5011828;28;20051;-75
2022/01/25 09:12:55;;;;;;;95.47;37.53;;;3.00;99.90;;;;;;5021066;28;20726;-74
2022/01/25 09:15:22;;;;;;;87.95;35.65;;;2.90;99.90;;;;;;5024570;28;20365;-74
2022/01/25 09:17:49;;;;;;;89.07;34.63;;;2.80;99.90;;;;;;5007768;28;20049;-75
2022/01/25 09:20:17;;;;;;;96.80;34.65;;;2.80;99.90;;;;;;5024424;28;20056;-74
2022/01/25 09:22:43;;;;;;;93.95;35.15;;;2.70;99.90;;;;;;5024841;28;20072;-74
2022/01/25 09:25:27;;;;;;;92.72;36.67;;;2.80;99.90;;;;;;5041574;28;20431;-75
2022/01/25 09:27:55;;;;;;;93.18;36.38;;;2.80;99.90;;;;;;5048599;28;20663;-75
2022/01/25 09:30:22;;;;;;;88.30;36.80;;;2.70;99.90;;;;;;5027700;28;20131;-74
2022/01/25 09:32:49;;;;;;;102.65;38.80;;;2.60;99.90;;;;;;5027291;28;20079;-74
2022/01/25 09:35:16;;;;;;;101.43;39.92;;;2.50;99.90;;;;;;5032456;28;20053;-74
2022/01/25 09:37:43;;;;;;;102.03;37.25;;;2.50;99.90;;;;;;5023882;28;20657;-75
2022/01/25 09:40:11;;;;;;;103.97;38.40;;;2.70;99.90;;;;;;5012375;28;20042;-76
2022/01/25 09:42:39;;;;;;;97.57;37.53;;;2.70;99.90;;;;;;5036417;28;20118;-75
2022/01/25 09:45:07;;;;;;;101.90;38.58;;;2.70;99.90;;;;;;5003296;28;20149;-75
2022/01/25 09:47:36;;;;;;;98.05;37.53;;;2.70;99.90;;;;;;5022270;28;20041;-75
2022/01/25 09:50:03;;;;;;;89.93;37.67;;;2.70;99.90;;;;;;5014125;28;20068;-74
2022/01/25 09:52:30;;;;;;;97.63;38.25;;;2.70;99.90;;;;;;5043709;28;20056;-75
2022/01/25 09:55:00;;;;;;;95.50;38.50;;;2.80;99.90;;;;;;5040426;28;20064;-76
2022/01/25 09:57:27;;;;;;;103.10;37.90;;;2.90;99.90;;;;;;5007496;28;20048;-75
2022/01/25 09:59:56;;;;;;;102.10;39.55;;;2.90;99.90;;;;;;5007409;28;20080;-75
2022/01/25 10:02:50;;;;;;;98.80;37.13;;;3.00;99.90;;;;;;5023408;28;20132;-75
2022/01/25 10:05:31;;;;;;;110.73;37.97;;;2.90;99.90;;;;;;5006919;28;20491;-75
2022/01/25 10:08:07;;;;;;;96.40;36.70;;;2.90;99.90;;;;;;5010612;28;20044;-74
2022/01/25 10:10:39;;;;;;;97.03;38.63;;;2.90;99.90;;;;;;5008390;28;20049;-75
2022/01/25 10:13:17;;;;;;;95.35;39.97;;;3.00;99.90;;;;;;5021427;28;20495;-76
2022/01/25 10:15:59;;;;;;;96.28;38.35;;;3.00;99.90;;;;;;5008874;28;20052;-75
2022/01/25 10:18:42;;;;;;;102.38;38.58;;;3.20;99.90;;;;;;5022409;28;20678;-75
2022/01/25 10:21:17;;;;;;;102.20;39.33;;;3.20;99.90;;;;;;5006889;28;20083;-75
2022/01/25 10:24:16;;;;;;;103.88;40.50;;;3.20;99.90;;;;;;5022916;28;20052;-75
2022/01/25 10:26:56;;;;;;;103.07;39.47;;;3.20;99.90;;;;;;5007199;28;20070;-75
2022/01/25 10:29:34;;;;;;;108.45;41.97;;;3.30;99.90;;;;;;5060134;28;20573;-76
2022/01/25 10:32:09;;;;;;;104.05;40.03;;;3.20;99.90;;;;;;5002557;28;20092;-75
2022/01/25 10:34:44;;;;;;;99.35;39.97;;;3.00;99.90;;;;;;5017353;28;20072;-74
2022/01/25 10:37:20;;;;;;;103.07;39.38;;;2.80;99.90;;;;;;5022592;28;20053;-75
2022/01/25 10:39:51;;;;;;;101.32;37.17;;;2.80;99.90;;;;;;5014768;28;20127;-75
2022/01/25 10:42:24;;;;;;;110.47;42.45;;;2.80;99.90;;;;;;5014142;28;20045;-75
2022/01/25 10:45:02;;;;;;;98.28;39.47;;;2.80;99.90;;;;;;5024123;28;20048;-75
2022/01/25 10:47:49;;;;;;;103.15;37.67;;;2.80;99.90;;;;;;5021778;28;20045;-75
2022/01/25 10:50:22;;;;;;;104.93;41.00;;;2.80;99.90;;;;;;5022286;28;20045;-75
2022/01/25 10:53:15;;;;;;;106.63;42.42;;;3.00;99.90;;;;;;5039623;28;20128;-74
2022/01/25 10:55:43;;;;;;;102.75;42.03;;;3.00;99.90;;;;;;5022152;28;20059;-74
2022/01/25 10:58:11;;;;;;;103.65;40.08;;;3.00;99.90;;;;;;5022927;28;20148;-75
2022/01/25 11:00:42;;;;;;;102.00;38.67;;;3.00;99.90;;;;;;5041014;28;20254;-75
2022/01/25 11:03:10;;;;;;;100.68;40.47;;;3.10;99.90;;;;;;5023288;28;20048;-76
2022/01/25 11:05:41;;;;;;;117.43;42.08;;;3.10;99.90;;;;;;5007802;28;20044;-75
2022/01/25 11:08:16;;;;;;;111.22;41.55;;;3.20;99.90;;;;;;5036680;28;20084;-76
2022/01/25 11:10:48;;;;;;;111.10;43.50;;;3.10;99.90;;;;;;5022708;28;20095;-75
2022/01/25 11:13:50;;;;;;;109.68;41.45;;;3.30;99.90;;;;;;5036563;28;20521;-74
2022/01/25 11:16:12;;;;;;;105.03;38.90;;;3.40;99.90;;;;;;5037887;28;20253;-74
2022/01/25 11:18:40;;;;;;;119.97;44.65;;;3.40;99.90;;;;;;5021190;28;20081;-74
2022/01/25 11:21:10;;;;;;;109.78;43.47;;;3.30;99.90;;;;;;5006257;28;20431;-73
2022/01/25 11:23:39;;;;;;;110.82;40.20;;;3.00;99.90;;;;;;5040236;28;20111;-73
2022/01/25 11:26:09;;;;;;;111.07;43.38;;;3.10;99.90;;;;;;5022196;28;20449;-72
2022/01/25 11:28:38;;;;;;;106.60;40.38;;;3.10;99.90;;;;;;5035411;28;20446;-73
2022/01/25 11:31:09;;;;;;;113.55;42.47;;;3.10;99.90;;;;;;5043706;28;20487;-73
2022/01/25 11:33:42;;;;;;;101.00;38.47;;;2.90;99.90;;;;;;5042613;28;20079;-73
2022/01/25 11:36:11;;;;;;;114.15;44.15;;;2.90;99.90;;;;;;5043087;28;20744;-73
2022/01/25 11:38:43;;;;;;;113.70;40.45;;;2.90;99.90;;;;;;5032535;28;20527;-73
2022/01/25 11:41:15;;;;;;;107.68;39.85;;;2.90;99.90;;;;;;5010323;28;20080;-73
2022/01/25 11:43:44;;;;;;;115.63;40.28;;;2.90;99.90;;;;;;5040803;28;20080;-73
2022/01/25 11:46:11;;;;;;;105.93;40.75;;;3.00;99.90;;;;;;5005855;28;20053;-74
2022/01/25 11:48:44;;;;;;;105.22;40.08;;;3.10;99.90;;;;;;5018460;28;20149;-77
2022/01/25 11:51:20;;;;;;;112.30;40.80;;;3.20;99.90;;;;;;5023860;28;20489;-77
2022/01/25 11:53:49;;;;;;;120.47;42.50;;;2.90;99.90;;;;;;5025004;28;20068;-77
2022/01/25 11:56:17;;;;;;;142.02;43.05;;;2.90;99.90;;;;;;5023621;28;20064;-76
2022/01/25 11:58:56;;;;;;;164.95;48.28;;;2.90;99.90;;;;;;5009634;28;20481;-75
2022/01/25 12:01:25;;;;;;;105.18;39.33;;;2.90;99.90;;;;;;5042181;28;20202;-76
2022/01/25 12:03:56;;;;;;;110.50;41.72;;;2.90;99.90;;;;;;5024525;28;20057;-76
2022/01/25 12:06:31;;;;;;;112.78;40.35;;;2.90;99.90;;;;;;5049148;28;20045;-76
2022/01/25 12:11:38;;;;;;;;;;;3.00;99.90;;;;;;5022554;28;20129;-76
2022/01/25 12:14:14;;;;;;;113.50;41.53;;;3.10;99.90;;;;;;5025221;28;19975;-77
2022/01/25 12:16:44;;;;;;;125.72;43.83;;;3.10;99.90;;;;;;5024437;28;20045;-76
2022/01/25 12:19:14;;;;;;;121.80;44.88;;;3.10;99.90;;;;;;5029025;28;20513;-76
2022/01/25 12:21:52;;;;;;;112.90;41.72;;;3.10;99.90;;;;;;5031179;28;20052;-76
2022/01/25 12:24:21;;;;;;;123.10;41.25;;;3.20;99.90;;;;;;5024766;28;20049;-76
2022/01/25 12:29:45;;;;;;;125.25;43.67;;;3.20;99.90;;;;;;5024961;28;20056;-76
2022/01/25 12:32:55;;;;;;;129.48;47.75;;;3.20;99.90;;;;;;5023757;28;20045;-76
2022/01/25 12:35:40;;;;;;;126.68;43.20;;;3.30;99.90;;;;;;5002552;28;20179;-76
2022/01/25 12:38:19;;;;;;;137.30;51.45;;;3.40;99.90;;;;;;5042354;28;20520;-76
2022/01/25 12:40:49;;;;;;;126.55;42.75;;;3.40;99.90;;;;;;5021119;28;20368;-76
2022/01/25 12:43:18;;;;;;;129.98;50.00;;;3.20;99.90;;;;;;5020767;28;20080;-76
2022/01/25 12:46:02;;;;;;;116.10;41.70;;;3.10;99.90;;;;;;5024321;28;20087;-76
2022/01/25 12:48:37;;;;;;;116.97;40.07;;;3.10;99.90;;;;;;5012168;28;20470;-76
2022/01/25 12:51:07;;;;;;;113.50;40.73;;;2.90;99.90;;;;;;5034794;28;20687;-76
2022/01/25 12:53:37;;;;;;;119.20;43.28;;;2.80;99.90;;;;;;5044355;28;20053;-76
2022/01/25 12:56:10;;;;;;;119.63;42.50;;;2.80;99.90;;;;;;5039108;22;20053;-74
2022/01/25 12:58:38;;;;;;;112.70;41.55;;;2.70;99.90;;;;;;5013572;28;20081;-75
2022/01/25 13:01:09;;;;;;;124.68;45.20;;;2.80;99.90;;;;;;5009863;28;20504;-73
2022/01/25 13:03:42;;;;;;;115.65;43.08;;;2.70;99.90;;;;;;4996840;28;20413;-74
2022/01/25 13:06:09;;;;;;;114.75;42.08;;;2.70;99.90;;;;;;4993622;28;20053;-74
2022/01/25 13:11:26;;;;;;;118.70;41.30;;;2.80;99.90;;;;;;4993146;28;20354;-73
2022/01/25 13:14:00;;;;;;;107.82;39.17;;;2.80;99.90;;;;;;4994122;28;20568;-73
2022/01/25 13:16:46;;;;;;;109.97;39.15;;;2.90;99.90;;;;;;4979404;28;20049;-73
2022/01/25 13:19:20;;;;;;;108.05;39.13;;;2.80;99.90;;;;;;4994988;28;20052;-74
2022/01/25 13:21:57;;;;;;;114.72;43.92;;;2.70;99.90;;;;;;4994711;28;20438;-73
2022/01/25 13:24:38;;;;;;;118.18;41.42;;;2.80;99.90;;;;;;4997168;28;20061;-74
2022/01/25 13:27:11;;;;;;;127.97;44.35;;;2.80;99.90;;;;;;4969877;28;20056;-74
2022/01/25 13:32:39;;;;;;;129.07;46.47;;;2.90;99.90;;;;;;5011743;28;20306;-74
2022/01/25 13:38:11;;;;;;;131.85;47.88;;;2.90;99.90;;;;;;5012269;28;20060;-73
2022/01/25 13:40:51;;;;;;;;;;;2.80;99.90;;;;;;4992537;28;20264;-74
2022/01/25 13:46:10;;;;;;;121.15;44.28;;;2.90;99.90;;;;;;5010034;28;20450;-73
2022/01/25 13:48:37;;;;;;;124.53;42.40;;;2.90;99.90;;;;;;4976414;28;20525;-72
2022/01/25 13:51:07;;;;;;;122.90;41.85;;;3.00;99.90;;;;;;5005647;28;20111;-73
2022/01/25 13:53:36;;;;;;;126.28;42.45;;;2.90;99.90;;;;;;4997232;28;20462;-73
2022/01/25 13:56:07;;;;;;;119.30;41.85;;;2.90;99.90;;;;;;5013462;28;20063;-73
2022/01/25 13:58:37;;;;;;;125.10;43.45;;;2.80;99.90;;;;;;5013069;28;20142;-74
2022/01/25 14:01:06;;;;;;;120.03;43.33;;;2.70;99.90;;;;;;5012159;28;20060;-73
2022/01/25 14:03:45;;;;;;;121.82;43.42;;;2.60;99.90;;;;;;5012771;28;20057;-73
2022/01/25 14:06:25;;;;;;;117.85;40.75;;;2.40;99.90;;;;;;5008046;28;20157;-73
2022/01/25 14:09:00;;;;;;;129.43;42.10;;;2.60;99.90;;;;;;4993551;28;20143;-74
2022/01/25 14:11:36;;;;;;;;;;;2.60;99.90;;;;;;4993750;28;20437;-73
2022/01/25 14:25:33;;;;;;;116.38;41.60;;;2.70;99.90;;;;;;5009590;28;20460;-73
2022/01/25 14:28:03;;;;;;;132.77;44.53;;;2.70;99.90;;;;;;5011148;28;20533;-74
2022/01/25 14:30:33;;;;;;;124.85;42.45;;;2.80;99.90;;;;;;4994849;28;20072;-73
2022/01/25 14:33:03;;;;;;;127.60;45.53;;;2.90;99.90;;;;;;5013694;28;20526;-74
2022/01/25 14:35:32;;;;;;;142.10;45.20;;;3.00;99.90;;;;;;5013358;28;20045;-73
2022/01/25 14:38:04;;;;;;;131.57;44.63;;;3.10;99.90;;;;;;4994235;28;20146;-73
2022/01/25 14:40:31;;;;;;;129.55;43.10;;;3.00;99.90;;;;;;4977481;28;20510;-74
2022/01/25 14:43:01;;;;;;;122.10;41.83;;;3.00;99.90;;;;;;5012533;28;20049;-73
2022/01/25 14:45:28;;;;;;;130.27;44.70;;;2.90;99.90;;;;;;4993846;28;20095;-73
2022/01/25 14:47:56;;;;;;;115.70;40.33;;;2.80;99.90;;;;;;4995510;28;20284;-73
2022/01/25 14:50:31;;;;;;;114.32;41.67;;;2.80;99.90;;;;;;5013597;28;20052;-74
2022/01/25 14:53:12;;;;;;;124.05;45.72;;;2.80;99.90;;;;;;4993191;28;20053;-73
2022/01/25 14:55:41;;;;;;;129.60;43.88;;;2.80;99.90;;;;;;4990570;28;20049;-73